createdAt,value
2018-07-15T00:00:42.919Z,44.70
2018-07-15T00:03:13.648Z,44.70
2018-07-15T00:05:42.540Z,44.70
2018-07-15T00:08:11.137Z,44.70
2018-07-15T00:10:42.405Z,44.60
2018-07-15T00:13:11.398Z,44.60
2018-07-15T00:18:08.456Z,44.50
2018-07-15T00:20:37.790Z,44.40
2018-07-15T00:23:07.107Z,44.40
2018-07-15T00:25:35.733Z,44.30
2018-07-15T00:28:04.720Z,44.20
2018-07-15T00:30:33.857Z,44.20
2018-07-15T00:33:02.282Z,44.20
2018-07-15T00:35:30.911Z,44.20
2018-07-15T00:37:59.316Z,44.10
2018-07-15T00:40:27.745Z,44.10
2018-07-15T00:42:56.473Z,44.10
2018-07-15T00:45:24.903Z,43.90
2018-07-15T00:47:53.463Z,44.00
2018-07-15T00:50:21.922Z,43.90
2018-07-15T00:52:50.321Z,43.90
2018-07-15T00:55:18.772Z,43.90
2018-07-15T00:57:47.587Z,43.90
2018-07-15T01:00:20.265Z,43.80
2018-07-15T01:02:48.970Z,44.00
2018-07-15T01:05:17.554Z,43.90
2018-07-15T01:07:46.468Z,44.00
2018-07-15T01:10:14.881Z,44.00
2018-07-15T01:12:43.309Z,44.00
2018-07-15T01:15:12.411Z,43.90
2018-07-15T01:17:40.903Z,43.90
2018-07-15T01:20:09.751Z,43.90
2018-07-15T01:22:38.148Z,43.90
2018-07-15T01:25:06.600Z,43.90
2018-07-15T01:27:35.023Z,43.90
2018-07-15T01:30:03.653Z,44.00
2018-07-15T01:32:32.102Z,43.90
2018-07-15T01:35:01.797Z,43.90
2018-07-15T01:37:30.540Z,43.90
2018-07-15T01:39:59.514Z,43.90
2018-07-15T01:42:28.076Z,43.90
2018-07-15T01:44:56.581Z,43.90
2018-07-15T01:47:25.751Z,44.00
2018-07-15T01:49:54.132Z,44.00
2018-07-15T01:52:22.586Z,44.00
2018-07-15T01:54:51.064Z,44.00
2018-07-15T01:57:20.153Z,44.00
2018-07-15T01:59:48.633Z,44.00
2018-07-15T02:02:17.152Z,44.10
2018-07-15T02:04:45.572Z,44.00
2018-07-15T02:07:14.242Z,44.00
2018-07-15T02:09:42.674Z,44.00
2018-07-15T02:12:11.728Z,44.00
2018-07-15T02:14:40.466Z,44.00
2018-07-15T02:17:08.993Z,44.00
2018-07-15T02:19:37.883Z,44.00
2018-07-15T02:22:06.459Z,44.00
2018-07-15T02:24:35.797Z,44.00
2018-07-15T02:27:04.445Z,44.00
2018-07-15T02:29:33.175Z,44.00
2018-07-15T02:32:02.015Z,44.00
2018-07-15T02:34:30.442Z,44.00
2018-07-15T02:36:58.918Z,44.70
2018-07-15T02:39:27.494Z,44.00
2018-07-15T02:41:55.889Z,44.00
2018-07-15T02:44:24.640Z,44.00
2018-07-15T02:46:53.279Z,44.10
2018-07-15T02:49:21.706Z,44.10
2018-07-15T02:51:50.076Z,44.10
2018-07-15T02:54:18.565Z,44.10
2018-07-15T02:56:46.987Z,44.10
2018-07-15T02:59:15.501Z,44.00
2018-07-15T03:01:44.019Z,43.90
2018-07-15T03:04:12.583Z,44.00
2018-07-15T03:06:41.076Z,44.00
2018-07-15T03:09:11.705Z,44.00
2018-07-15T03:11:40.644Z,44.00
2018-07-15T03:14:09.293Z,44.00
2018-07-15T03:16:37.797Z,43.90
2018-07-15T03:19:06.199Z,43.90
2018-07-15T03:21:34.786Z,43.90
2018-07-15T03:24:03.570Z,43.90
2018-07-15T03:26:31.994Z,43.90
2018-07-15T03:29:00.997Z,43.90
2018-07-15T03:31:30.389Z,44.00
2018-07-15T03:33:59.042Z,43.90
2018-07-15T03:36:28.069Z,44.00
2018-07-15T03:38:56.467Z,43.90
2018-07-15T03:41:25.370Z,44.00
2018-07-15T03:43:54.450Z,44.00
2018-07-15T03:46:22.846Z,44.00
2018-07-15T03:48:51.426Z,44.00
2018-07-15T03:51:19.947Z,44.10
2018-07-15T03:53:48.431Z,44.00
2018-07-15T03:56:17.436Z,44.10
2018-07-15T03:58:46.812Z,44.10
2018-07-15T04:01:15.413Z,44.10
2018-07-15T04:03:44.366Z,44.10
2018-07-15T04:06:13.179Z,44.20
2018-07-15T04:08:41.679Z,44.20
2018-07-15T04:11:10.175Z,44.10
2018-07-15T04:13:38.595Z,44.10
2018-07-15T04:16:07.027Z,44.10
2018-07-15T04:18:35.412Z,44.10
2018-07-15T04:21:03.887Z,44.20
2018-07-15T04:23:32.314Z,44.20
2018-07-15T04:26:01.522Z,44.20
2018-07-15T04:28:30.168Z,44.20
2018-07-15T04:30:58.808Z,44.10
2018-07-15T04:33:27.233Z,44.00
2018-07-15T04:35:56.393Z,43.30
2018-07-15T04:38:24.789Z,42.20
2018-07-15T04:40:53.308Z,41.10
2018-07-15T04:43:21.733Z,40.10
2018-07-15T04:45:50.164Z,39.10
2018-07-15T04:48:18.615Z,38.10
2018-07-15T04:50:47.017Z,37.30
2018-07-15T04:53:15.614Z,36.50
2018-07-15T04:55:44.085Z,35.80
2018-07-15T04:58:12.459Z,35.80
2018-07-15T05:00:40.978Z,36.30
2018-07-15T05:03:09.556Z,36.90
2018-07-15T05:05:38.069Z,37.40
2018-07-15T05:08:06.490Z,38.00
2018-07-15T05:10:34.962Z,38.50
2018-07-15T05:13:03.564Z,38.90
2018-07-15T05:15:32.113Z,39.30
2018-07-15T05:18:00.515Z,39.60
2018-07-15T05:20:28.897Z,39.80
2018-07-15T05:22:57.864Z,40.40
2018-07-15T05:25:26.489Z,40.20
2018-07-15T05:27:55.433Z,40.30
2018-07-15T05:30:24.481Z,40.50
2018-07-15T05:32:53.750Z,40.80
2018-07-15T05:35:22.357Z,40.90
2018-07-15T05:37:50.959Z,41.00
2018-07-15T05:40:19.425Z,41.20
2018-07-15T05:42:48.284Z,41.30
2018-07-15T05:45:16.827Z,41.40
2018-07-15T05:47:45.274Z,41.50
2018-07-15T05:52:49.268Z,41.60
2018-07-15T05:55:18.056Z,41.70
2018-07-15T05:57:47.302Z,41.80
2018-07-15T06:00:16.381Z,42.00
2018-07-15T06:02:44.864Z,42.00
2018-07-15T06:05:13.333Z,42.00
2018-07-15T06:07:41.953Z,42.10
2018-07-15T06:10:10.695Z,42.10
2018-07-15T06:12:40.666Z,42.10
2018-07-15T06:15:09.836Z,42.10
2018-07-15T06:17:38.749Z,42.10
2018-07-15T06:20:08.013Z,42.10
2018-07-15T06:22:36.914Z,42.20
2018-07-15T06:25:06.555Z,42.30
2018-07-15T06:27:35.281Z,42.30
2018-07-15T06:30:04.572Z,42.30
2018-07-15T06:32:33.037Z,42.30
2018-07-15T06:35:01.601Z,42.30
2018-07-15T06:37:30.052Z,42.30
2018-07-15T06:39:58.495Z,42.40
2018-07-15T06:42:27.201Z,42.40
2018-07-15T06:44:55.978Z,42.40
2018-07-15T06:47:24.905Z,42.40
2018-07-15T06:49:53.461Z,42.30
2018-07-15T06:52:22.004Z,42.40
2018-07-15T06:54:57.570Z,42.50
2018-07-15T06:57:25.952Z,42.50
2018-07-15T06:59:54.573Z,42.50
2018-07-15T07:02:22.999Z,42.50
2018-07-15T07:04:51.568Z,42.50
2018-07-15T07:07:20.135Z,42.60
2018-07-15T07:09:49.459Z,42.50
2018-07-15T07:12:17.903Z,42.50
2018-07-15T07:14:47.966Z,42.50
2018-07-15T07:17:16.358Z,42.50
2018-07-15T07:19:45.928Z,42.40
2018-07-15T07:22:14.703Z,42.60
2018-07-15T07:24:44.296Z,42.60
2018-07-15T07:27:12.710Z,42.60
2018-07-15T07:29:41.153Z,42.50
2018-07-15T07:32:09.729Z,42.40
2018-07-15T07:34:38.186Z,42.70
2018-07-15T07:37:06.848Z,42.40
2018-07-15T07:39:35.345Z,42.40
2018-07-15T07:42:03.828Z,42.50
2018-07-15T07:44:32.245Z,42.60
2018-07-15T07:47:01.368Z,42.60
2018-07-15T07:49:30.289Z,43.10
2018-07-15T07:51:58.950Z,42.90
2018-07-15T07:54:27.812Z,42.80
2018-07-15T07:56:56.235Z,43.00
2018-07-15T07:59:24.957Z,43.00
2018-07-15T08:01:53.533Z,42.90
2018-07-15T08:04:21.964Z,42.90
2018-07-15T08:06:50.594Z,42.90
2018-07-15T08:09:19.192Z,43.10
2018-07-15T08:11:47.686Z,43.20
2018-07-15T08:14:16.392Z,43.30
2018-07-15T08:16:45.019Z,43.40
2018-07-15T08:19:13.499Z,43.50
2018-07-15T08:21:42.049Z,43.50
2018-07-15T08:24:10.728Z,43.20
2018-07-15T08:26:39.341Z,43.20
2018-07-15T08:29:07.786Z,43.20
2018-07-15T08:34:04.716Z,43.10
2018-07-15T08:36:33.138Z,42.90
2018-07-15T08:39:01.592Z,42.70
2018-07-15T08:41:30.061Z,42.50
2018-07-15T08:43:58.516Z,42.40
2018-07-15T08:46:27.124Z,42.30
2018-07-15T08:48:55.618Z,42.50
2018-07-15T08:51:24.140Z,42.40
2018-07-15T08:53:52.572Z,42.20
2018-07-15T08:56:21.197Z,42.00
2018-07-15T08:58:49.965Z,42.00
2018-07-15T09:01:18.386Z,41.90
2018-07-15T09:03:46.812Z,41.70
2018-07-15T09:06:15.295Z,41.40
2018-07-15T09:08:43.998Z,41.10
2018-07-15T09:11:12.421Z,40.90
2018-07-15T09:13:40.895Z,40.60
2018-07-15T09:16:09.553Z,40.40
2018-07-15T09:18:38.257Z,40.40
2018-07-15T09:21:06.922Z,40.30
2018-07-15T09:23:35.402Z,40.50
2018-07-15T09:26:03.863Z,40.60
2018-07-15T09:28:32.561Z,40.40
2018-07-15T09:31:00.969Z,40.50
2018-07-15T09:33:30.288Z,41.30
2018-07-15T09:35:58.714Z,40.70
2018-07-15T09:38:27.275Z,40.70
2018-07-15T09:40:55.908Z,40.60
2018-07-15T09:43:24.432Z,40.40
2018-07-15T09:45:53.161Z,40.50
2018-07-15T09:48:21.845Z,40.40
2018-07-15T09:50:50.515Z,40.50
2018-07-15T09:53:18.913Z,40.50
2018-07-15T09:55:47.520Z,40.80
2018-07-15T09:58:16.863Z,40.30
2018-07-15T10:00:50.601Z,40.60
2018-07-15T10:03:19.026Z,40.70
2018-07-15T10:05:47.633Z,40.80
2018-07-15T10:08:16.001Z,40.80
2018-07-15T10:10:44.632Z,40.20
2018-07-15T10:13:13.097Z,39.90
2018-07-15T10:15:41.796Z,39.80
2018-07-15T10:18:10.441Z,40.40
2018-07-15T10:20:39.099Z,40.20
2018-07-15T10:23:07.694Z,39.60
2018-07-15T10:25:36.433Z,39.90
2018-07-15T10:28:05.083Z,40.00
2018-07-15T10:30:33.733Z,39.80
2018-07-15T10:33:02.260Z,40.10
2018-07-15T10:35:30.697Z,40.20
2018-07-15T10:37:59.567Z,40.00
2018-07-15T10:40:27.972Z,39.60
2018-07-15T10:42:56.354Z,39.30
2018-07-15T10:45:24.913Z,38.80
2018-07-15T10:47:53.344Z,38.60
2018-07-15T10:50:21.808Z,38.50
2018-07-15T10:52:50.425Z,38.40
2018-07-15T10:55:18.974Z,38.20
2018-07-15T10:57:47.465Z,38.40
2018-07-15T11:00:15.900Z,38.40
2018-07-15T11:02:44.470Z,38.40
2018-07-15T11:05:13.222Z,38.00
2018-07-15T11:07:41.596Z,37.90
2018-07-15T11:10:10.116Z,37.60
2018-07-15T11:12:38.821Z,38.00
2018-07-15T11:15:07.207Z,38.10
2018-07-15T11:17:35.596Z,38.50
2018-07-15T11:20:04.122Z,38.70
2018-07-15T11:22:32.820Z,38.50
2018-07-15T11:25:01.201Z,38.20
2018-07-15T11:27:29.644Z,38.40
2018-07-15T11:29:58.010Z,38.60
2018-07-15T11:32:27.453Z,38.50
2018-07-15T11:34:55.871Z,38.10
2018-07-15T11:37:24.252Z,37.40
2018-07-15T11:39:52.631Z,37.50
2018-07-15T11:42:21.281Z,37.80
2018-07-15T11:44:49.872Z,37.60
2018-07-15T11:47:18.226Z,37.40
2018-07-15T11:49:46.854Z,37.10
2018-07-15T11:52:15.216Z,36.90
2018-07-15T11:54:43.585Z,36.60
2018-07-15T11:57:11.959Z,36.60
2018-07-15T11:59:40.893Z,36.90
2018-07-15T12:02:09.578Z,37.10
2018-07-15T12:04:38.000Z,37.00
2018-07-15T12:07:06.428Z,36.90
2018-07-15T12:09:34.806Z,36.90
2018-07-15T12:12:03.207Z,37.00
2018-07-15T12:14:33.100Z,37.70
2018-07-15T12:17:01.496Z,37.10
2018-07-15T12:19:29.927Z,36.80
2018-07-15T12:21:58.344Z,36.60
2018-07-15T12:24:27.310Z,36.30
2018-07-15T12:26:55.844Z,36.20
2018-07-15T12:29:24.236Z,36.00
2018-07-15T12:31:53.079Z,36.00
2018-07-15T12:34:21.572Z,36.30
2018-07-15T12:36:50.643Z,36.10
2018-07-15T12:39:19.018Z,36.30
2018-07-15T12:41:47.524Z,36.30
2018-07-15T12:44:15.872Z,36.60
2018-07-15T12:46:44.222Z,36.20
2018-07-15T12:49:12.616Z,36.50
2018-07-15T12:51:40.983Z,36.10
2018-07-15T12:54:09.502Z,35.90
2018-07-15T12:56:38.062Z,35.60
2018-07-15T12:59:06.458Z,35.80
2018-07-15T13:01:35.007Z,36.00
2018-07-15T13:04:03.668Z,35.30
2018-07-15T13:06:32.323Z,35.20
2018-07-15T13:09:00.753Z,35.50
2018-07-15T13:11:29.156Z,36.20
2018-07-15T13:13:57.663Z,36.40
2018-07-15T13:16:26.202Z,36.80
2018-07-15T13:18:54.635Z,36.50
2018-07-15T13:21:23.045Z,36.10
2018-07-15T13:23:51.438Z,35.70
2018-07-15T13:26:20.196Z,36.10
2018-07-15T13:31:17.129Z,36.10
2018-07-15T13:33:45.936Z,35.70
2018-07-15T13:36:14.950Z,35.60
2018-07-15T13:43:40.184Z,34.80
2018-07-15T13:46:08.565Z,34.80
2018-07-15T13:48:36.935Z,34.50
2018-07-15T13:51:05.374Z,34.30
2018-07-15T13:53:33.881Z,34.40
2018-07-15T13:56:02.511Z,34.60
2018-07-15T13:58:31.065Z,35.10
2018-07-15T14:00:59.487Z,35.30
2018-07-15T14:03:28.023Z,34.30
2018-07-15T14:05:56.450Z,34.00
2018-07-15T14:08:25.048Z,34.20
2018-07-15T14:10:54.329Z,34.30
2018-07-15T14:13:23.190Z,34.30
2018-07-15T14:15:51.864Z,34.40
2018-07-15T14:18:20.215Z,34.50
2018-07-15T14:20:48.588Z,34.60
2018-07-15T14:23:17.052Z,34.30
2018-07-15T14:25:45.633Z,34.00
2018-07-15T14:28:14.513Z,33.90
2018-07-15T14:30:43.010Z,34.10
2018-07-15T14:33:11.508Z,33.70
2018-07-15T14:35:39.921Z,33.10
2018-07-15T14:38:08.608Z,33.30
2018-07-15T14:40:37.198Z,33.70
2018-07-15T14:43:05.785Z,33.50
2018-07-15T14:45:40.035Z,33.60
2018-07-15T14:48:08.892Z,33.10
2018-07-15T14:50:37.356Z,32.80
2018-07-15T14:53:06.188Z,32.30
2018-07-15T14:55:34.744Z,32.10
2018-07-15T14:58:03.307Z,32.50
2018-07-15T15:00:31.756Z,31.80
2018-07-15T15:03:00.180Z,30.90
2018-07-15T15:05:28.602Z,30.50
2018-07-15T15:08:03.957Z,30.20
2018-07-15T15:10:32.672Z,30.60
2018-07-15T15:13:02.192Z,30.20
2018-07-15T15:15:30.856Z,29.90
2018-07-15T15:18:00.064Z,29.80
2018-07-15T15:20:28.435Z,30.00
2018-07-15T15:22:56.926Z,29.90
2018-07-15T15:25:25.309Z,30.20
2018-07-15T15:27:53.757Z,30.00
2018-07-15T15:30:22.129Z,29.60
2018-07-15T15:32:50.505Z,29.70
2018-07-15T15:35:18.896Z,29.40
2018-07-15T15:37:47.543Z,29.20
2018-07-15T15:40:16.292Z,29.80
2018-07-15T15:42:45.523Z,29.60
2018-07-15T15:45:13.979Z,29.50
2018-07-15T15:47:42.356Z,29.90
2018-07-15T15:50:10.719Z,29.10
2018-07-15T15:52:39.113Z,29.20
2018-07-15T15:55:07.884Z,30.00
2018-07-15T15:57:37.068Z,29.20
2018-07-15T16:00:05.692Z,29.00
2018-07-15T16:02:34.103Z,29.00
2018-07-15T16:05:02.486Z,29.00
2018-07-15T16:07:30.835Z,29.90
2018-07-15T16:09:59.204Z,29.40
2018-07-15T16:12:28.251Z,29.40
2018-07-15T16:14:56.740Z,29.40
2018-07-15T16:17:25.223Z,29.50
2018-07-15T16:22:28.233Z,28.90
2018-07-15T16:24:56.620Z,28.70
2018-07-15T16:27:25.212Z,28.50
2018-07-15T16:29:53.712Z,28.70
2018-07-15T16:32:22.101Z,29.10
2018-07-15T16:34:50.625Z,28.70
2018-07-15T16:37:19.030Z,28.50
2018-07-15T16:39:47.393Z,28.50
2018-07-15T16:42:15.740Z,28.60
2018-07-15T16:47:13.044Z,29.30
2018-07-15T16:49:41.526Z,29.30
2018-07-15T16:52:10.100Z,29.60
2018-07-15T16:54:38.854Z,30.00
2018-07-15T16:57:07.223Z,30.60
2018-07-15T16:59:35.599Z,31.50
2018-07-15T17:02:04.019Z,32.10
2018-07-15T17:04:32.373Z,32.50
2018-07-15T17:07:01.076Z,32.70
2018-07-15T17:09:29.497Z,33.00
2018-07-15T17:11:58.163Z,33.20
2018-07-15T17:14:26.656Z,33.30
2018-07-15T17:16:55.044Z,33.50
2018-07-15T17:19:23.960Z,33.80
2018-07-15T17:21:52.924Z,34.00
2018-07-15T17:24:21.291Z,34.10
2018-07-15T17:26:49.679Z,34.20
2018-07-15T17:29:18.239Z,34.30
2018-07-15T17:31:46.668Z,34.30
2018-07-15T17:34:15.204Z,34.40
2018-07-15T17:36:43.583Z,34.50
2018-07-15T17:39:11.953Z,34.60
2018-07-15T17:41:40.964Z,34.60
2018-07-15T17:44:09.365Z,34.80
2018-07-15T17:46:38.047Z,34.80
2018-07-15T17:49:06.913Z,34.80
2018-07-15T17:51:35.320Z,34.90
2018-07-15T17:54:03.697Z,34.90
2018-07-15T17:56:32.071Z,35.00
2018-07-15T17:59:00.687Z,35.00
2018-07-15T18:01:29.053Z,34.90
2018-07-15T18:03:57.433Z,35.70
2018-07-15T18:06:25.891Z,35.10
2018-07-15T18:08:54.293Z,35.10
2018-07-15T18:11:22.755Z,35.20
2018-07-15T18:13:51.248Z,35.30
2018-07-15T18:16:19.956Z,35.30
2018-07-15T18:18:48.344Z,35.30
2018-07-15T18:21:16.731Z,35.10
2018-07-15T18:23:45.258Z,35.50
2018-07-15T18:26:13.832Z,35.60
2018-07-15T18:28:42.436Z,35.70
2018-07-15T18:31:10.845Z,36.00
2018-07-15T18:33:39.187Z,36.10
2018-07-15T18:36:08.156Z,37.00
2018-07-15T18:38:36.633Z,36.60
2018-07-15T18:41:07.434Z,36.70
2018-07-15T18:43:36.386Z,36.70
2018-07-15T18:46:05.394Z,36.80
2018-07-15T18:48:34.295Z,36.80
2018-07-15T18:51:03.008Z,37.00
2018-07-15T18:53:31.466Z,37.00
2018-07-15T18:55:59.846Z,37.00
2018-07-15T18:58:28.231Z,37.30
2018-07-15T19:00:56.807Z,37.30
2018-07-15T19:03:25.247Z,37.90
2018-07-15T19:05:53.799Z,37.80
2018-07-15T19:08:22.140Z,37.30
2018-07-15T19:10:51.380Z,37.20
2018-07-15T19:13:20.020Z,36.60
2018-07-15T19:15:48.412Z,36.50
2018-07-15T19:18:16.811Z,37.00
2018-07-15T19:20:45.203Z,36.10
2018-07-15T19:23:13.601Z,36.00
2018-07-15T19:25:42.090Z,36.10
2018-07-15T19:28:10.681Z,36.10
2018-07-15T19:30:39.090Z,36.10
2018-07-15T19:33:07.684Z,37.10
2018-07-15T19:35:36.096Z,37.70
2018-07-15T19:38:04.514Z,38.50
2018-07-15T19:40:33.161Z,39.30
2018-07-15T19:43:01.580Z,38.80
2018-07-15T19:45:29.996Z,39.10
2018-07-15T19:50:26.938Z,39.80
2018-07-15T19:52:55.477Z,39.80
2018-07-15T19:55:23.962Z,39.80
2018-07-15T19:57:52.859Z,39.70
2018-07-15T20:00:23.033Z,39.50
2018-07-15T20:02:51.562Z,39.20
2018-07-15T20:05:19.999Z,38.70
2018-07-15T20:07:49.214Z,38.30
2018-07-15T20:10:17.789Z,38.40
2018-07-15T20:12:46.679Z,38.10
2018-07-15T20:15:15.337Z,37.90
2018-07-15T20:17:43.959Z,37.30
2018-07-15T20:20:12.976Z,37.30
2018-07-15T20:22:41.475Z,37.00
2018-07-15T20:25:10.136Z,36.70
2018-07-15T20:27:39.428Z,36.70
2018-07-15T20:30:08.280Z,36.70
2018-07-15T20:32:36.890Z,36.50
2018-07-15T20:35:05.335Z,36.30
2018-07-15T20:37:33.745Z,36.10
2018-07-15T20:40:02.406Z,35.80
2018-07-15T20:42:31.819Z,35.80
2018-07-15T20:45:00.256Z,35.90
2018-07-15T20:47:28.650Z,35.80
2018-07-15T20:49:57.740Z,35.80
2018-07-15T20:52:26.278Z,36.10
2018-07-15T20:54:54.807Z,36.00
2018-07-15T20:57:23.281Z,36.10
2018-07-15T20:59:51.805Z,36.30
2018-07-15T21:02:20.220Z,36.40
2018-07-15T21:04:48.640Z,36.50
2018-07-15T21:07:17.129Z,36.70
2018-07-15T21:09:46.682Z,36.80
2018-07-15T21:12:16.147Z,37.00
2018-07-15T21:14:44.627Z,37.10
2018-07-15T21:17:13.064Z,37.30
2018-07-15T21:19:41.490Z,37.50
2018-07-15T21:22:13.182Z,37.70
2018-07-15T21:24:41.753Z,37.80
2018-07-15T21:27:10.182Z,38.00
2018-07-15T21:29:38.823Z,38.10
2018-07-15T21:32:07.303Z,38.10
2018-07-15T21:34:35.714Z,38.00
2018-07-15T21:37:04.240Z,38.10
2018-07-15T21:39:32.633Z,38.10
2018-07-15T21:42:01.060Z,38.10
2018-07-15T21:44:29.611Z,38.20
2018-07-15T21:46:58.035Z,38.10
2018-07-15T21:49:26.504Z,38.20
2018-07-15T21:51:54.925Z,38.30
2018-07-15T21:54:23.288Z,38.20
2018-07-15T21:56:51.713Z,38.20
2018-07-15T21:59:20.132Z,38.20
2018-07-15T22:01:48.606Z,38.20
2018-07-15T22:04:16.974Z,38.20
2018-07-15T22:06:56.991Z,38.20
2018-07-15T22:09:50.188Z,38.30
2018-07-15T22:12:18.607Z,38.40
2018-07-15T22:14:47.337Z,38.50
2018-07-15T22:17:15.724Z,39.20
2018-07-15T22:19:44.584Z,38.70
2018-07-15T22:22:13.084Z,38.80
2018-07-15T22:24:41.556Z,38.90
2018-07-15T22:27:09.995Z,39.00
2018-07-15T22:29:38.520Z,39.10
2018-07-15T22:32:07.108Z,39.20
2018-07-15T22:34:35.863Z,39.40
2018-07-15T22:37:04.291Z,39.60
2018-07-15T22:39:32.699Z,39.60
2018-07-15T22:42:01.777Z,39.80
2018-07-15T22:44:30.147Z,39.90
2018-07-15T22:46:58.525Z,40.00
2018-07-15T22:49:26.932Z,40.10
2018-07-15T22:51:55.299Z,40.30
2018-07-15T22:54:23.775Z,40.40
2018-07-15T22:56:52.257Z,40.50
2018-07-15T22:59:20.671Z,40.60
2018-07-15T23:02:04.062Z,40.70
2018-07-15T23:05:51.825Z,40.80
2018-07-15T23:08:20.553Z,41.00
2018-07-15T23:10:49.693Z,41.10
2018-07-15T23:13:18.552Z,41.30
2018-07-15T23:15:47.276Z,41.40
2018-07-15T23:18:15.705Z,41.40
2018-07-15T23:20:44.833Z,41.40
2018-07-15T23:23:13.835Z,41.40
2018-07-15T23:25:42.209Z,41.40
2018-07-15T23:28:11.645Z,41.40
2018-07-15T23:30:40.685Z,41.40
2018-07-15T23:33:10.005Z,41.40
2018-07-15T23:35:38.480Z,41.40
2018-07-15T23:38:06.903Z,41.40
2018-07-15T23:40:35.280Z,41.50
2018-07-15T23:43:04.547Z,41.40
2018-07-15T23:45:34.031Z,41.50
2018-07-15T23:48:02.412Z,41.50
2018-07-15T23:50:30.832Z,41.50
2018-07-15T23:52:59.220Z,41.50
2018-07-15T23:55:27.647Z,41.50
